KBGR/BGR METAR and TAF weather

Enter ICAO airport designator
Station Type Date Time Source
KBGR METAR 2020/02/26 09:53 UTC NOAA

KBGR 260953Z 01005KT 10SM OVC085 02/M03 A2999 RMK AO2 SLP156 T00221028


Station Type Date Time Source
KBGR Decoded METAR 2020/02/26 09:53 UTC NOAA

BANGOR INT'L AIRPORT, ME, United States (KBGR) 44-48N 068-49W 57M
Feb 26, 2020 - 04:53 AM EST / 2020.02.26 0953 UTC
Wind: from the N (010 degrees) at 6 MPH (5 KT):0
Visibility: 10 mile(s):0
Sky conditions: overcast
Temperature: 36.0 F (2.2 C)
Dew Point: 27.0 F (-2.8 C)
Relative Humidity: 69%
Pressure (altimeter): 29.99 in. Hg (1015 hPa)
ob: KBGR 260953Z 01005KT 10SM OVC085 02/M03 A2999 RMK AO2 SLP156 T00221028
cycle: 10

Station Type Date Time Source
KBGR TAF 2020/02/26 06:24 UTC NOAA

TAF KBGR 260521Z 2606/2706 01003KT P6SM BKN060
FM270500 07006KT P6SM BKN023

Example: see airport list